createdAt,value
2017-08-24T00:00:49.854Z,14.00
2017-08-24T00:03:16.075Z,13.80
2017-08-24T00:05:42.300Z,13.80
2017-08-24T00:08:08.788Z,13.80
2017-08-24T00:10:34.889Z,13.90
2017-08-24T00:13:01.018Z,13.90
2017-08-24T00:15:27.346Z,14.00
2017-08-24T00:17:53.467Z,14.10
2017-08-24T00:20:19.882Z,14.30
2017-08-24T00:22:46.118Z,14.30
2017-08-24T00:25:12.327Z,14.30
2017-08-24T00:27:38.510Z,14.30
2017-08-24T00:30:04.709Z,14.20
2017-08-24T00:32:31.230Z,14.10
2017-08-24T00:34:57.367Z,14.00
2017-08-24T00:37:23.564Z,14.00
2017-08-24T00:39:49.849Z,14.00
2017-08-24T00:42:16.058Z,14.00
2017-08-24T00:44:42.539Z,13.90
2017-08-24T00:47:08.827Z,13.90
2017-08-24T00:49:35.074Z,13.80
2017-08-24T00:52:01.293Z,13.70
2017-08-24T00:54:27.445Z,13.60
2017-08-24T00:56:53.988Z,13.60
2017-08-24T00:59:20.205Z,13.60
2017-08-24T01:01:46.449Z,13.60
2017-08-24T01:04:12.663Z,13.50
2017-08-24T01:06:38.906Z,13.50
2017-08-24T01:09:05.452Z,13.50
2017-08-24T01:11:31.570Z,13.60
2017-08-24T01:13:57.798Z,13.50
2017-08-24T01:16:24.437Z,13.50
2017-08-24T01:18:50.617Z,13.50
2017-08-24T01:21:16.755Z,13.40
2017-08-24T01:23:43.225Z,13.40
2017-08-24T01:26:09.491Z,13.30
2017-08-24T01:28:35.696Z,13.30
2017-08-24T01:31:02.128Z,13.30
2017-08-24T01:33:28.299Z,13.30
2017-08-24T01:35:54.411Z,13.30
2017-08-24T01:38:20.885Z,13.30
2017-08-24T01:40:47.071Z,13.30
2017-08-24T01:43:13.208Z,13.40
2017-08-24T01:45:39.677Z,13.40
2017-08-24T01:48:05.874Z,13.40
2017-08-24T01:50:31.978Z,13.30
2017-08-24T01:52:58.470Z,13.30
2017-08-24T01:55:24.648Z,13.20
2017-08-24T01:57:50.765Z,13.30
2017-08-24T02:00:17.247Z,13.30
2017-08-24T02:02:43.527Z,13.30
2017-08-24T02:05:09.660Z,13.20
2017-08-24T02:07:35.981Z,13.20
2017-08-24T02:10:02.161Z,13.30
2017-08-24T02:12:28.348Z,13.30
2017-08-24T02:14:54.845Z,13.30
2017-08-24T02:17:21.035Z,13.30
2017-08-24T02:19:47.145Z,13.30
2017-08-24T02:22:13.301Z,13.30
2017-08-24T02:24:39.500Z,13.40
2017-08-24T02:27:05.634Z,13.40
2017-08-24T02:29:32.097Z,13.40
2017-08-24T02:31:58.244Z,13.40
2017-08-24T02:34:24.415Z,13.30
2017-08-24T02:36:50.817Z,13.30
2017-08-24T02:39:16.985Z,13.30
2017-08-24T02:41:43.096Z,13.20
2017-08-24T02:44:09.569Z,13.20
2017-08-24T02:46:35.752Z,13.10
2017-08-24T02:49:01.857Z,13.20
2017-08-24T02:51:28.053Z,13.20
2017-08-24T02:53:54.249Z,13.20
2017-08-24T02:56:20.708Z,13.20
2017-08-24T02:58:46.939Z,13.20
2017-08-24T03:01:13.128Z,13.10
2017-08-24T03:03:39.277Z,13.10
2017-08-24T03:06:05.392Z,13.10
2017-08-24T03:08:31.843Z,13.10
2017-08-24T03:10:58.049Z,13.00
2017-08-24T03:13:24.177Z,13.00
2017-08-24T03:15:50.349Z,13.00
2017-08-24T03:18:16.511Z,13.00
2017-08-24T03:20:43.000Z,12.90
2017-08-24T03:23:09.199Z,12.90
2017-08-24T03:25:35.310Z,12.90
2017-08-24T03:28:01.453Z,12.90
2017-08-24T03:30:27.549Z,12.90
2017-08-24T03:32:54.028Z,12.90
2017-08-24T03:35:20.236Z,12.90
2017-08-24T03:37:46.341Z,12.90
2017-08-24T03:40:12.485Z,12.90
2017-08-24T03:42:38.612Z,12.90
2017-08-24T03:45:05.163Z,12.90
2017-08-24T03:47:31.249Z,12.90
2017-08-24T03:49:57.375Z,12.90
2017-08-24T03:52:23.531Z,12.90
2017-08-24T03:54:49.660Z,12.90
2017-08-24T03:57:16.330Z,12.90
2017-08-24T03:59:42.491Z,12.80
2017-08-24T04:02:08.615Z,12.80
2017-08-24T04:04:35.112Z,12.80
2017-08-24T04:07:01.276Z,12.80
2017-08-24T04:09:27.425Z,12.80
2017-08-24T04:11:53.555Z,12.70
2017-08-24T04:14:19.668Z,12.60
2017-08-24T04:16:46.145Z,12.70
2017-08-24T04:19:12.229Z,12.70
2017-08-24T04:21:38.343Z,12.60
2017-08-24T04:24:04.537Z,12.60
2017-08-24T04:26:30.713Z,12.60
2017-08-24T04:28:57.182Z,12.60
2017-08-24T04:31:23.373Z,12.70
2017-08-24T04:33:49.493Z,12.70
2017-08-24T04:39:11.094Z,12.70
2017-08-24T04:41:37.302Z,12.70
2017-08-24T04:44:03.827Z,12.80
2017-08-24T04:46:30.409Z,12.70
2017-08-24T04:48:56.596Z,12.70
2017-08-24T04:51:22.819Z,12.80
2017-08-24T04:53:49.246Z,12.80
2017-08-24T04:56:15.384Z,12.90
2017-08-24T04:58:41.535Z,12.90
2017-08-24T05:01:07.773Z,12.90
2017-08-24T05:03:34.081Z,13.00
2017-08-24T05:06:00.294Z,13.00
2017-08-24T05:08:26.748Z,13.00
2017-08-24T05:10:52.963Z,13.00
2017-08-24T05:13:19.067Z,13.10
2017-08-24T05:15:45.537Z,13.10
2017-08-24T05:18:11.781Z,13.20
2017-08-24T05:20:37.970Z,13.30
2017-08-24T05:23:04.547Z,13.30
2017-08-24T05:25:30.848Z,13.40
2017-08-24T05:27:57.089Z,13.50
2017-08-24T05:30:23.628Z,13.50
2017-08-24T05:32:49.843Z,13.60
2017-08-24T05:35:16.071Z,13.80
2017-08-24T05:37:42.643Z,13.80
2017-08-24T05:40:08.822Z,14.00
2017-08-24T05:42:34.946Z,14.20
2017-08-24T05:45:01.203Z,14.40
2017-08-24T05:47:27.481Z,14.50
2017-08-24T05:49:53.625Z,14.60
2017-08-24T05:52:19.783Z,14.70
2017-08-24T05:54:46.178Z,14.80
2017-08-24T05:57:12.362Z,14.90
2017-08-24T05:59:38.567Z,15.10
2017-08-24T06:02:04.887Z,15.30
2017-08-24T06:04:31.244Z,15.50
2017-08-24T06:06:57.477Z,15.80
2017-08-24T06:09:23.671Z,15.80
2017-08-24T06:11:49.914Z,16.10
2017-08-24T06:14:16.163Z,16.30
2017-08-24T06:16:42.550Z,16.60
2017-08-24T06:19:08.761Z,17.40
2017-08-24T06:21:34.979Z,18.00
2017-08-24T06:24:01.165Z,18.40
2017-08-24T06:26:27.330Z,18.80
2017-08-24T06:28:53.488Z,19.30
2017-08-24T06:31:19.788Z,19.00
2017-08-24T06:33:45.948Z,18.80
2017-08-24T06:36:12.091Z,18.60
2017-08-24T06:38:38.334Z,18.60
2017-08-24T06:41:04.519Z,18.50
2017-08-24T06:43:30.681Z,18.60
2017-08-24T06:45:56.864Z,18.30
2017-08-24T06:48:23.069Z,18.40
2017-08-24T06:50:49.253Z,18.50
2017-08-24T06:53:15.475Z,18.50
2017-08-24T06:55:41.740Z,18.20
2017-08-24T06:58:08.329Z,18.30
2017-08-24T07:00:34.468Z,18.40
2017-08-24T07:03:00.761Z,18.40
2017-08-24T07:05:26.903Z,18.60
2017-08-24T07:07:53.073Z,18.70
2017-08-24T07:10:19.345Z,18.60
2017-08-24T07:12:45.504Z,18.90
2017-08-24T07:15:11.808Z,19.30
2017-08-24T07:17:38.957Z,19.10
2017-08-24T07:20:05.075Z,19.10
2017-08-24T07:22:31.289Z,19.20
2017-08-24T07:24:57.470Z,19.50
2017-08-24T07:27:23.895Z,20.30
2017-08-24T07:29:50.077Z,20.40
2017-08-24T07:32:16.370Z,20.80
2017-08-24T07:34:42.624Z,21.20
2017-08-24T07:37:08.930Z,21.60
2017-08-24T07:39:35.252Z,22.80
2017-08-24T07:42:01.545Z,22.70
2017-08-24T07:44:27.813Z,23.40
2017-08-24T07:46:54.060Z,23.70
2017-08-24T07:49:20.282Z,24.30
2017-08-24T07:51:47.702Z,25.30
2017-08-24T07:54:14.253Z,25.40
2017-08-24T07:56:40.461Z,25.50
2017-08-24T07:59:06.704Z,25.20
2017-08-24T08:01:32.917Z,25.00
2017-08-24T08:03:59.098Z,25.00
2017-08-24T08:06:25.316Z,25.10
2017-08-24T08:08:51.539Z,25.60
2017-08-24T08:11:17.832Z,25.50
2017-08-24T08:13:44.004Z,25.10
2017-08-24T08:16:10.221Z,25.40
2017-08-24T08:18:36.458Z,24.20
2017-08-24T08:21:02.733Z,24.30
2017-08-24T08:23:28.919Z,24.80
2017-08-24T08:25:55.147Z,25.50
2017-08-24T08:28:22.029Z,25.60
2017-08-24T08:30:48.987Z,26.40
2017-08-24T08:33:15.237Z,25.80
2017-08-24T08:35:41.535Z,25.70
2017-08-24T08:38:08.285Z,24.80
2017-08-24T08:40:34.471Z,25.50
2017-08-24T08:43:00.696Z,25.70
2017-08-24T08:45:27.252Z,25.60
2017-08-24T08:47:53.469Z,25.10
2017-08-24T08:50:19.649Z,25.30
2017-08-24T08:52:46.202Z,25.80
2017-08-24T08:55:12.431Z,25.30
2017-08-24T08:57:38.659Z,25.10
2017-08-24T09:00:05.192Z,25.30
2017-08-24T09:02:32.409Z,25.50
2017-08-24T09:04:58.583Z,26.30
2017-08-24T09:07:25.142Z,26.30
2017-08-24T09:09:51.320Z,27.60
2017-08-24T09:12:17.496Z,27.60
2017-08-24T09:14:44.014Z,27.70
2017-08-24T09:17:10.226Z,27.30
2017-08-24T09:19:36.433Z,27.40
2017-08-24T09:22:04.116Z,27.00
2017-08-24T09:24:30.428Z,27.10
2017-08-24T09:26:56.692Z,26.80
2017-08-24T09:29:23.086Z,26.20
2017-08-24T09:31:50.044Z,26.80
2017-08-24T09:34:16.703Z,26.50
2017-08-24T09:36:43.039Z,25.40
2017-08-24T09:39:10.477Z,24.80
2017-08-24T09:41:37.045Z,24.70
2017-08-24T09:44:03.501Z,24.50
2017-08-24T09:46:29.808Z,25.00
2017-08-24T09:48:56.151Z,24.70
2017-08-24T09:51:22.806Z,24.70
2017-08-24T09:53:49.055Z,24.30
2017-08-24T09:56:15.229Z,23.90
2017-08-24T09:58:41.853Z,24.50
2017-08-24T10:01:08.088Z,24.20
2017-08-24T10:03:34.320Z,23.90
2017-08-24T10:06:00.882Z,23.60
2017-08-24T10:08:27.129Z,23.00
2017-08-24T10:10:53.297Z,22.70
2017-08-24T10:13:19.923Z,21.90
2017-08-24T10:15:46.823Z,21.00
2017-08-24T10:18:13.068Z,20.60
2017-08-24T10:20:39.646Z,20.30
2017-08-24T10:23:05.948Z,20.20
2017-08-24T10:25:32.080Z,20.20
2017-08-24T10:27:58.755Z,20.30
2017-08-24T10:32:56.816Z,20.60
2017-08-24T10:35:23.384Z,20.90
2017-08-24T10:37:49.588Z,21.20
2017-08-24T10:40:15.872Z,21.50
2017-08-24T10:42:42.378Z,22.00
2017-08-24T10:45:08.574Z,22.30
2017-08-24T10:47:34.816Z,22.50
2017-08-24T10:50:01.258Z,22.70
2017-08-24T10:52:27.468Z,22.90
2017-08-24T10:54:53.625Z,23.30
2017-08-24T10:57:20.258Z,23.60
2017-08-24T10:59:46.467Z,23.60
2017-08-24T11:02:12.693Z,23.80
2017-08-24T11:04:39.355Z,24.70
2017-08-24T11:07:05.549Z,25.50
2017-08-24T11:09:31.848Z,26.70
2017-08-24T11:11:58.305Z,26.40
2017-08-24T11:14:24.523Z,26.80
2017-08-24T11:16:50.695Z,26.60
2017-08-24T11:19:17.220Z,26.40
2017-08-24T11:21:43.553Z,26.00
2017-08-24T11:24:09.813Z,26.50
2017-08-24T11:26:36.423Z,26.40
2017-08-24T11:29:02.682Z,27.00
2017-08-24T11:31:28.889Z,27.40
2017-08-24T11:33:55.515Z,27.50
2017-08-24T11:36:21.792Z,27.50
2017-08-24T11:38:47.946Z,27.80
2017-08-24T11:41:15.248Z,28.90
2017-08-24T11:43:42.279Z,28.90
2017-08-24T11:46:08.484Z,28.30
2017-08-24T11:48:35.628Z,28.20
2017-08-24T11:51:01.903Z,27.50
2017-08-24T11:53:28.090Z,28.00
2017-08-24T11:55:54.655Z,27.80
2017-08-24T11:58:21.962Z,28.30
2017-08-24T12:00:48.241Z,27.80
2017-08-24T12:03:14.811Z,27.20
2017-08-24T12:05:40.953Z,27.40
2017-08-24T12:08:07.113Z,27.40
2017-08-24T12:10:33.347Z,27.90
2017-08-24T12:12:59.550Z,28.10
2017-08-24T12:15:25.858Z,27.80
2017-08-24T12:17:52.038Z,27.10
2017-08-24T12:20:18.981Z,27.00
2017-08-24T12:22:45.217Z,26.60
2017-08-24T12:25:11.500Z,26.50
2017-08-24T12:27:37.891Z,26.90
2017-08-24T12:30:05.115Z,27.20
2017-08-24T12:32:31.288Z,27.20
2017-08-24T12:34:57.500Z,26.90
2017-08-24T12:37:23.681Z,26.50
2017-08-24T12:39:50.710Z,25.70
2017-08-24T12:42:16.895Z,25.80
2017-08-24T12:44:43.068Z,26.30
2017-08-24T12:47:09.464Z,26.80
2017-08-24T12:49:35.660Z,27.30
2017-08-24T12:52:01.949Z,27.00
2017-08-24T12:54:28.204Z,27.60
2017-08-24T12:56:54.469Z,27.70
2017-08-24T12:59:20.677Z,27.30
2017-08-24T13:01:46.956Z,26.10
2017-08-24T13:04:13.224Z,26.40
2017-08-24T13:06:39.452Z,26.10
2017-08-24T13:09:05.995Z,25.90
2017-08-24T13:11:32.364Z,25.50
2017-08-24T13:13:58.591Z,26.30
2017-08-24T13:16:24.931Z,26.90
2017-08-24T13:18:51.093Z,27.20
2017-08-24T13:21:17.410Z,26.90
2017-08-24T13:23:43.695Z,27.80
2017-08-24T13:26:09.896Z,27.40
2017-08-24T13:28:36.224Z,27.30
2017-08-24T13:31:02.598Z,27.20
2017-08-24T13:33:28.928Z,26.90
2017-08-24T13:35:55.152Z,26.70
2017-08-24T13:38:22.252Z,26.50
2017-08-24T13:40:48.517Z,26.00
2017-08-24T13:43:14.713Z,25.90
2017-08-24T13:45:40.984Z,25.50
2017-08-24T13:48:07.329Z,25.00
2017-08-24T13:50:33.512Z,24.80
2017-08-24T13:52:59.744Z,24.80
2017-08-24T13:55:25.878Z,24.30
2017-08-24T13:57:52.087Z,24.10
2017-08-24T14:00:18.346Z,23.60
2017-08-24T14:02:44.537Z,23.40
2017-08-24T14:05:10.782Z,23.30
2017-08-24T14:07:37.118Z,23.20
2017-08-24T14:10:04.700Z,23.10
2017-08-24T14:12:30.888Z,23.10
2017-08-24T14:14:57.223Z,22.80
2017-08-24T14:17:24.878Z,22.90
2017-08-24T14:19:51.149Z,22.90
2017-08-24T14:22:17.444Z,22.60
2017-08-24T14:24:43.744Z,22.70
2017-08-24T14:27:09.897Z,22.80
2017-08-24T14:29:36.150Z,22.70
2017-08-24T14:32:02.328Z,22.70
2017-08-24T14:34:28.467Z,22.50
2017-08-24T14:36:54.742Z,22.60
2017-08-24T14:39:21.191Z,23.10
2017-08-24T14:41:47.421Z,23.40
2017-08-24T14:44:13.751Z,23.30
2017-08-24T14:46:39.931Z,22.70
2017-08-24T14:49:06.150Z,22.50
2017-08-24T14:51:32.337Z,22.70
2017-08-24T14:53:58.708Z,22.90
2017-08-24T14:56:24.955Z,22.60
2017-08-24T14:58:51.273Z,22.80
2017-08-24T15:01:17.525Z,22.70
2017-08-24T15:03:43.825Z,22.80
2017-08-24T15:06:10.102Z,22.60
2017-08-24T15:08:36.265Z,22.60
2017-08-24T15:11:02.624Z,22.70
2017-08-24T15:13:28.897Z,23.00
2017-08-24T15:15:55.239Z,23.00
2017-08-24T15:18:21.438Z,23.10
2017-08-24T15:20:47.677Z,23.10
2017-08-24T15:23:14.630Z,23.00
2017-08-24T15:25:40.848Z,23.10
2017-08-24T15:28:07.040Z,23.20
2017-08-24T15:30:33.299Z,23.10
2017-08-24T15:32:59.588Z,22.60
2017-08-24T15:35:25.945Z,22.60
2017-08-24T15:37:52.247Z,22.70
2017-08-24T15:40:18.416Z,22.80
2017-08-24T15:42:44.689Z,22.60
2017-08-24T15:45:10.816Z,22.70
2017-08-24T15:47:36.989Z,22.60
2017-08-24T15:50:03.286Z,22.70
2017-08-24T15:52:29.604Z,22.60
2017-08-24T15:54:55.764Z,22.70
2017-08-24T15:57:22.412Z,22.70
2017-08-24T15:59:48.627Z,22.60
2017-08-24T16:02:15.155Z,22.30
2017-08-24T16:04:41.442Z,22.30
2017-08-24T16:07:08.810Z,22.50
2017-08-24T16:09:35.047Z,22.50
2017-08-24T16:12:01.308Z,22.40
2017-08-24T16:14:28.330Z,22.40
2017-08-24T16:16:54.561Z,22.30
2017-08-24T16:19:20.758Z,22.40
2017-08-24T16:21:47.243Z,22.20
2017-08-24T16:24:13.388Z,22.40
2017-08-24T16:26:40.020Z,22.20
2017-08-24T16:29:06.296Z,22.20
2017-08-24T16:31:32.431Z,22.10
2017-08-24T16:33:58.606Z,22.00
2017-08-24T16:36:24.811Z,22.00
2017-08-24T16:38:51.134Z,21.90
2017-08-24T16:41:17.435Z,21.90
2017-08-24T16:43:43.676Z,21.80
2017-08-24T16:46:09.839Z,21.70
2017-08-24T16:48:36.326Z,21.60
2017-08-24T16:51:02.564Z,21.50
2017-08-24T16:53:28.894Z,21.50
2017-08-24T16:55:55.088Z,21.40
2017-08-24T16:58:21.348Z,21.30
2017-08-24T17:00:47.508Z,21.20
2017-08-24T17:03:13.864Z,21.20
2017-08-24T17:05:40.085Z,21.20
2017-08-24T17:08:06.294Z,21.20
2017-08-24T17:10:32.649Z,21.20
2017-08-24T17:12:58.929Z,21.10
2017-08-24T17:15:25.123Z,21.20
2017-08-24T17:17:51.299Z,21.10
2017-08-24T17:20:17.631Z,21.10
2017-08-24T17:22:43.857Z,21.10
2017-08-24T17:25:10.124Z,21.20
2017-08-24T17:27:36.395Z,21.10
2017-08-24T17:30:02.701Z,21.20
2017-08-24T17:32:29.786Z,21.10
2017-08-24T17:34:56.281Z,21.10
2017-08-24T17:37:22.699Z,21.10
2017-08-24T17:39:49.139Z,21.00
2017-08-24T17:42:15.351Z,21.00
2017-08-24T17:44:41.680Z,21.00
2017-08-24T17:47:09.626Z,21.00
2017-08-24T17:49:36.001Z,21.00
2017-08-24T17:52:02.279Z,20.90
2017-08-24T17:54:28.423Z,20.80
2017-08-24T17:56:54.674Z,20.80
2017-08-24T17:59:21.897Z,20.70
2017-08-24T18:01:48.168Z,20.70
2017-08-24T18:04:14.337Z,20.70
2017-08-24T18:06:40.814Z,20.70
2017-08-24T18:09:07.264Z,20.60
2017-08-24T18:11:33.510Z,20.50
2017-08-24T18:13:59.749Z,20.40
2017-08-24T18:16:26.295Z,20.30
2017-08-24T18:18:52.589Z,20.20
2017-08-24T18:21:18.774Z,20.20
2017-08-24T18:23:45.056Z,20.10
2017-08-24T18:26:11.304Z,20.00
2017-08-24T18:28:37.680Z,19.90
2017-08-24T18:31:03.862Z,19.90
2017-08-24T18:33:30.152Z,19.80
2017-08-24T18:35:56.412Z,19.80
2017-08-24T18:38:22.746Z,19.70
2017-08-24T18:40:49.065Z,19.60
2017-08-24T18:43:15.447Z,19.60
2017-08-24T18:45:41.764Z,19.60
2017-08-24T18:48:07.997Z,19.50
2017-08-24T18:50:34.218Z,19.50
2017-08-24T18:53:00.485Z,19.40
2017-08-24T18:55:26.715Z,19.50
2017-08-24T18:57:53.079Z,19.70
2017-08-24T19:00:19.394Z,19.80
2017-08-24T19:02:46.531Z,19.70
2017-08-24T19:05:12.719Z,19.60
2017-08-24T19:07:39.909Z,19.60
2017-08-24T19:10:06.226Z,19.60
2017-08-24T19:12:32.483Z,19.50
2017-08-24T19:14:59.134Z,19.50
2017-08-24T19:17:25.547Z,19.40
2017-08-24T19:19:51.780Z,19.30
2017-08-24T19:22:17.935Z,19.30
2017-08-24T19:24:44.844Z,19.20
2017-08-24T19:27:11.033Z,19.20
2017-08-24T19:29:37.478Z,19.20
2017-08-24T19:32:04.108Z,19.20
2017-08-24T19:34:30.851Z,19.20
2017-08-24T19:36:57.553Z,19.30
2017-08-24T19:39:23.798Z,19.40
2017-08-24T19:41:50.036Z,19.50
2017-08-24T19:44:16.320Z,19.60
2017-08-24T19:46:42.593Z,19.60
2017-08-24T19:49:08.983Z,19.70
2017-08-24T19:51:35.199Z,19.80
2017-08-24T19:54:01.415Z,19.70
2017-08-24T19:56:27.741Z,19.80
2017-08-24T19:58:53.947Z,19.80
2017-08-24T20:01:20.291Z,19.80
2017-08-24T20:03:46.706Z,19.80
2017-08-24T20:06:13.503Z,19.80
2017-08-24T20:08:40.340Z,19.80
2017-08-24T20:11:06.646Z,19.80
2017-08-24T20:13:32.951Z,19.80
2017-08-24T20:15:59.134Z,19.70
2017-08-24T20:18:25.411Z,19.80
2017-08-24T20:20:51.682Z,19.70
2017-08-24T20:23:18.027Z,19.70
2017-08-24T20:25:44.307Z,19.60
2017-08-24T20:28:10.486Z,19.50
2017-08-24T20:30:36.866Z,19.50
2017-08-24T20:33:03.037Z,19.50
2017-08-24T20:35:29.286Z,19.40
2017-08-24T20:37:56.444Z,19.40
2017-08-24T20:40:22.652Z,19.30
2017-08-24T20:42:48.917Z,19.20
2017-08-24T20:45:15.166Z,19.20
2017-08-24T20:47:41.662Z,19.20
2017-08-24T20:50:07.892Z,19.10
2017-08-24T20:52:34.222Z,19.30
2017-08-24T20:55:00.505Z,19.40
2017-08-24T20:57:26.753Z,19.20
2017-08-24T20:59:53.714Z,19.30
2017-08-24T21:02:20.253Z,19.30
2017-08-24T21:04:46.479Z,19.30
2017-08-24T21:07:12.775Z,19.20
2017-08-24T21:09:40.040Z,19.10
2017-08-24T21:12:07.508Z,19.00
2017-08-24T21:14:33.799Z,18.90
2017-08-24T21:17:00.486Z,18.80
2017-08-24T21:19:26.754Z,18.70
2017-08-24T21:21:52.902Z,18.80
2017-08-24T21:24:19.082Z,18.70
2017-08-24T21:26:45.335Z,18.80
2017-08-24T21:29:11.536Z,18.80
2017-08-24T21:31:37.970Z,18.80
2017-08-24T21:34:05.138Z,18.70
2017-08-24T21:36:31.367Z,18.70
2017-08-24T21:38:57.604Z,18.70
2017-08-24T21:41:24.103Z,18.80
2017-08-24T21:43:50.433Z,18.70
2017-08-24T21:46:16.663Z,18.60
2017-08-24T21:48:42.949Z,18.50
2017-08-24T21:51:09.207Z,18.60
2017-08-24T21:53:35.512Z,18.60
2017-08-24T21:56:01.767Z,18.60
2017-08-24T21:58:28.394Z,18.50
2017-08-24T22:00:54.800Z,18.50
2017-08-24T22:03:20.993Z,18.50
2017-08-24T22:05:47.126Z,18.40
2017-08-24T22:08:13.454Z,18.40
2017-08-24T22:10:39.733Z,18.20
2017-08-24T22:13:05.965Z,18.30
2017-08-24T22:15:32.085Z,18.30
2017-08-24T22:17:58.291Z,18.30
2017-08-24T22:20:24.456Z,18.20
2017-08-24T22:22:50.702Z,18.20
2017-08-24T22:25:16.819Z,18.20
2017-08-24T22:27:43.147Z,18.10
2017-08-24T22:30:09.434Z,18.20
2017-08-24T22:32:35.623Z,18.10
2017-08-24T22:35:01.777Z,18.20
2017-08-24T22:37:28.158Z,18.20
2017-08-24T22:39:54.377Z,18.30
2017-08-24T22:42:20.541Z,18.30
2017-08-24T22:44:46.663Z,18.30
2017-08-24T22:47:12.803Z,18.30
2017-08-24T22:49:39.542Z,18.20
2017-08-24T22:52:05.724Z,18.20
2017-08-24T22:57:44.977Z,17.90
2017-08-24T23:00:17.472Z,17.90
2017-08-24T23:02:49.825Z,17.80
2017-08-24T23:05:16.076Z,17.70
2017-08-24T23:07:42.275Z,17.60
2017-08-24T23:10:08.380Z,17.60
2017-08-24T23:12:34.622Z,17.50
2017-08-24T23:15:00.970Z,17.50
2017-08-24T23:17:27.242Z,17.50
2017-08-24T23:19:53.652Z,17.40
2017-08-24T23:22:19.835Z,17.40
2017-08-24T23:24:46.263Z,17.40
2017-08-24T23:27:12.510Z,17.40
2017-08-24T23:29:38.727Z,17.40
2017-08-24T23:32:05.017Z,17.40
2017-08-24T23:34:31.233Z,17.50
2017-08-24T23:36:57.446Z,17.40
2017-08-24T23:39:23.647Z,17.30
2017-08-24T23:41:49.847Z,17.30
2017-08-24T23:44:17.004Z,17.30
2017-08-24T23:46:43.566Z,17.50
2017-08-24T23:49:09.886Z,17.50
2017-08-24T23:51:36.083Z,17.50
2017-08-24T23:54:04.129Z,17.50
2017-08-24T23:56:30.571Z,17.50
2017-08-24T23:58:57.377Z,17.40
